Besuchen Sie unsere anderen Wetter Stationen:

Template documentation
and downloads

And another site



METAR-Meldungen aus der Umgebung


Warning: A non-numeric value encountered in /is/htdocs/wp10906056_0YHW7Q9XB7/www/weather28/metar/metarDisplay.php on line 166

Warning: A non-numeric value encountered in /is/htdocs/wp10906056_0YHW7Q9XB7/www/weather28/metar/metarDisplay.php on line 166

Warning: A non-numeric value encountered in /is/htdocs/wp10906056_0YHW7Q9XB7/www/weather28/metar/metarDisplay.php on line 166

Warning: A non-numeric value encountered in /is/htdocs/wp10906056_0YHW7Q9XB7/www/weather28/metar/metarDisplay.php on line 166

Warning: A non-numeric value encountered in /is/htdocs/wp10906056_0YHW7Q9XB7/www/weather28/metar/metarDisplay.php on line 166

Warning: A non-numeric value encountered in /is/htdocs/wp10906056_0YHW7Q9XB7/www/weather28/metar/metarDisplay.php on line 166
   
EBAW - Antwerp
Aktualisierung: 20-04-2019 03:50
Klar  
Klar  
   Wind: variiert 3.7 km/h
Wind: variiert 3.7 km/h
Temperatur: 11°C
Taupunkt: 3°C
Luftfeuchte: 58%
Luftdruck: 1028 hPa
Sichtbarkeit: More than 10 km
Bewölkung: Klar
EBAW 200150Z AUTO VRB02KT CAVOK 11/03 Q1028
EBLG - Liège
Aktualisierung: 20-04-2019 03:50
Klar  
Klar  
   Wind: SO 11.1 km/h
Wind: SO 11.1 km/h
Temperatur: 13°C
Taupunkt: 3°C
Luftfeuchte: 51%
Luftdruck: 1028 hPa
Sichtbarkeit: More than 10 km
Bewölkung: Klar
EBLG 200150Z 13006KT CAVOK 13/03 Q1028 NOSIG
EBCV - Mons/Bergen
Aktualisierung: 20-04-2019 03:55
Klar  
Klar  
   Wind: variiert 3.7 km/h
Wind: variiert 3.7 km/h
Temperatur: 11°C
Taupunkt: 5°C
Luftfeuchte: 67%
Luftdruck: 1028 hPa
Bewölkt: Klar
Sichtbarkeit: More than 10 km
Bewölkung: Klar
EBCV 200155Z AUTO VRB02KT 9999 NCD 11/05 Q1028 BLU
EHBK - Maastricht
Aktualisierung: 20-04-2019 03:55
Klar  
Klar  
   Wind: OSO 11.1 km/h
Wind: OSO 11.1 km/h
Temperatur: 12°C
Taupunkt: 1°C
Luftfeuchte: 47%
Luftdruck: 1027 hPa
Bewölkt: Klar
Sichtbarkeit: More than 10 km
Bewölkung: Klar
EHBK 200155Z AUTO 11006KT 9999 NCD 12/01 Q1027
ELLX - Luxemburg
Aktualisierung: 20-04-2019 03:50
Klar  
Klar  
   Wind: NO 18.5 km/h
Wind: NO 18.5 km/h
Temperatur: 15°C
Taupunkt: 0°C
Luftfeuchte: 36%
Luftdruck: 1027 hPa
Bewölkt: Klar
Sichtbarkeit: More than 10 km
Bewölkung: Klar
ELLX 200150Z AUTO 04010KT 9999 NCD 15/M00 Q1027 NOSIG
EBOS - Oostende
Aktualisierung: 20-04-2019 03:50
Teilweise bewölkt  
Teilweise bewölkt  
   Wind: NO 11.1 km/h
Wind: NO 11.1 km/h
Temperatur: 11°C
Taupunkt: 8°C
Luftfeuchte: 82%
Luftdruck: 1028 hPa
Bewölkt: Teilweise bewölkt
Sichtbarkeit: 8 km
Bewölkung: Teilweise bewölkt
EBOS 200150Z 04006KT 8000 NSC 11/08 Q1028 NOSIG

Script entwickelt von  Saratoga-weather.org Angepasst für das Template von  Weerstation Leuven

Sie finden unser Wetter-Infos auch auf:

netzwerkwettercom

European Weather Network

WeatherCloud

Weather Underground

AWEKAS

Citizen Weather Observer Program (CWOP)

HAMweather, WeatherForYou, PWS Weather

Von uns verwendete Ausrüstung:

Wetterstation
Davis VP2 Aktiv Plus 6163EU

Wetterprogramm
Weather Display

Davis VP2 Aktiv Plus  6163EU

Weather Display